createdAt,value
2019-05-23T00:02:33.611Z,12.73
2019-05-23T00:05:28.219Z,13.10
2019-05-23T00:07:59.161Z,13.27
2019-05-23T00:10:32.678Z,13.23
2019-05-23T00:13:13.712Z,13.73
2019-05-23T00:15:44.737Z,13.23
2019-05-23T00:18:15.314Z,12.90
2019-05-23T00:20:47.065Z,12.77
2019-05-23T00:23:17.631Z,12.93
2019-05-23T00:25:47.015Z,13.87
2019-05-23T00:28:16.831Z,13.13
2019-05-23T00:30:56.878Z,13.80
2019-05-23T00:33:30.566Z,12.93
2019-05-23T00:36:00.516Z,14.00
2019-05-23T00:38:29.561Z,13.60
2019-05-23T00:41:00.424Z,13.10
2019-05-23T00:43:29.591Z,13.47
2019-05-23T00:45:58.713Z,13.43
2019-05-23T00:48:28.586Z,14.33
2019-05-23T00:50:59.313Z,14.20
2019-05-23T00:53:28.792Z,14.33
2019-05-23T00:55:58.225Z,14.27
2019-05-23T00:58:27.307Z,14.87
2019-05-23T01:00:57.722Z,14.50
2019-05-23T01:03:29.628Z,15.60
2019-05-23T01:05:59.533Z,14.00
2019-05-23T01:08:30.528Z,13.77
2019-05-23T01:11:01.294Z,14.43
2019-05-23T01:13:30.481Z,14.33
2019-05-23T01:16:00.172Z,13.43
2019-05-23T01:18:29.310Z,13.73
2019-05-23T01:21:20.990Z,13.67
2019-05-23T01:23:59.374Z,14.23
2019-05-23T01:26:29.258Z,14.33
2019-05-23T01:28:58.373Z,15.77
2019-05-23T01:31:34.011Z,16.27
2019-05-23T01:34:04.611Z,16.00
2019-05-23T01:36:35.840Z,16.53
2019-05-23T01:39:09.988Z,15.63
2019-05-23T01:41:39.674Z,15.87
2019-05-23T01:44:10.372Z,14.87
2019-05-23T01:46:41.483Z,15.53
2019-05-23T01:49:12.216Z,15.87
2019-05-23T01:51:41.532Z,16.03
2019-05-23T01:54:11.902Z,17.23
2019-05-23T01:56:41.181Z,15.90
2019-05-23T01:59:10.708Z,16.93
2019-05-23T02:01:40.621Z,15.93
2019-05-23T02:04:10.198Z,15.77
2019-05-23T02:06:39.280Z,16.83
2019-05-23T02:09:09.374Z,16.37
2019-05-23T02:11:39.126Z,16.27
2019-05-23T02:14:08.709Z,15.97
2019-05-23T02:16:37.987Z,15.83
2019-05-23T02:19:07.167Z,16.60
2019-05-23T02:21:36.294Z,16.83
2019-05-23T02:24:07.215Z,16.57
2019-05-23T02:26:37.458Z,16.57
2019-05-23T02:29:07.879Z,17.93
2019-05-23T02:31:37.017Z,16.87
2019-05-23T02:34:06.111Z,17.53
2019-05-23T02:36:35.506Z,17.70
2019-05-23T02:39:33.440Z,17.00
2019-05-23T02:42:13.233Z,16.07
2019-05-23T02:44:42.666Z,17.00
2019-05-23T02:47:29.808Z,17.57
2019-05-23T02:49:59.563Z,16.40
2019-05-23T02:52:42.417Z,17.63
2019-05-23T02:55:16.136Z,16.40
2019-05-23T02:57:47.343Z,16.90
2019-05-23T03:00:55.304Z,17.23
2019-05-23T03:03:25.838Z,17.83
2019-05-23T03:05:56.561Z,17.30
2019-05-23T03:08:27.063Z,16.97
2019-05-23T03:11:05.203Z,17.37
2019-05-23T03:13:34.647Z,18.13
2019-05-23T03:16:05.340Z,18.07
2019-05-23T03:18:41.554Z,18.90
2019-05-23T03:29:16.069Z,18.47
2019-05-23T03:32:25.350Z,16.93
2019-05-23T03:35:36.033Z,17.67
2019-05-23T03:38:06.947Z,19.17
2019-05-23T03:40:46.664Z,19.67
2019-05-23T03:43:56.430Z,19.50
2019-05-23T03:46:30.465Z,19.53
2019-05-23T03:49:03.384Z,19.40
2019-05-23T03:51:36.918Z,19.80
2019-05-23T03:54:06.628Z,19.90
2019-05-23T03:56:37.891Z,20.77
2019-05-23T03:59:15.320Z,19.30
2019-05-23T04:01:49.175Z,19.07
2019-05-23T04:04:20.825Z,19.13
2019-05-23T04:06:51.501Z,19.60
2019-05-23T04:09:21.519Z,19.37
2019-05-23T04:11:51.669Z,19.40
2019-05-23T04:14:21.669Z,19.00
2019-05-23T04:16:52.366Z,19.00
2019-05-23T04:19:22.843Z,19.40
2019-05-23T04:21:52.872Z,18.10
2019-05-23T04:24:22.627Z,20.17
2019-05-23T04:26:52.362Z,20.23
2019-05-23T04:29:22.511Z,19.40
2019-05-23T04:32:07.388Z,20.33
2019-05-23T04:34:23.599Z,19.60
2019-05-23T04:36:53.524Z,20.27
2019-05-23T04:39:23.130Z,19.57
2019-05-23T04:41:53.356Z,19.87
2019-05-23T04:44:29.591Z,20.23
2019-05-23T04:46:59.232Z,20.13
2019-05-23T04:49:29.442Z,19.93
2019-05-23T04:51:59.238Z,19.27
2019-05-23T04:54:29.160Z,19.83
2019-05-23T04:56:58.798Z,20.27
2019-05-23T04:59:29.859Z,19.77
2019-05-23T05:01:59.973Z,20.33
2019-05-23T05:04:32.451Z,19.43
2019-05-23T05:07:02.143Z,19.47
2019-05-23T05:09:32.478Z,19.03
2019-05-23T05:12:02.208Z,19.33
2019-05-23T05:14:32.912Z,20.20
2019-05-23T05:17:03.230Z,20.03
2019-05-23T05:19:34.378Z,19.70
2019-05-23T05:22:05.484Z,20.20
2019-05-23T05:24:39.990Z,20.03
2019-05-23T05:27:08.008Z,22.73
2019-05-23T05:29:38.226Z,20.30
2019-05-23T05:32:07.874Z,20.40
2019-05-23T05:34:37.409Z,19.90
2019-05-23T05:37:07.007Z,19.70
2019-05-23T05:39:37.003Z,21.07
2019-05-23T05:42:09.201Z,18.57
2019-05-23T05:44:40.093Z,19.47
2019-05-23T05:47:11.106Z,20.27
2019-05-23T05:49:42.276Z,19.93
2019-05-23T05:52:12.798Z,18.77
2019-05-23T06:00:28.397Z,18.33
2019-05-23T06:03:04.625Z,17.87
2019-05-23T06:05:37.910Z,19.87
2019-05-23T06:08:08.219Z,19.17
2019-05-23T06:10:37.420Z,18.87
2019-05-23T06:13:09.214Z,18.87
2019-05-23T06:15:42.010Z,17.87
2019-05-23T06:18:11.339Z,18.87
2019-05-23T06:20:41.153Z,18.67
2019-05-23T06:23:11.240Z,19.37
2019-05-23T06:25:41.117Z,18.80
2019-05-23T06:28:11.003Z,19.87
2019-05-23T06:30:40.488Z,20.27
2019-05-23T06:33:22.449Z,19.60
2019-05-23T06:35:41.478Z,19.83
2019-05-23T06:38:11.655Z,19.63
2019-05-23T06:40:41.714Z,20.17
2019-05-23T06:43:10.833Z,20.63
2019-05-23T06:45:41.983Z,22.77
2019-05-23T06:48:11.970Z,21.77
2019-05-23T06:50:41.117Z,22.37
2019-05-23T06:53:10.767Z,23.50
2019-05-23T06:59:07.372Z,24.13
2019-05-23T07:01:36.604Z,23.50
2019-05-23T07:04:06.083Z,24.93
2019-05-23T07:06:35.188Z,25.97
2019-05-23T07:09:13.864Z,24.93
2019-05-23T07:11:43.449Z,27.23
2019-05-23T07:14:13.250Z,25.57
2019-05-23T07:16:42.353Z,25.83
2019-05-23T07:19:11.566Z,28.40
2019-05-23T07:21:40.914Z,29.37
2019-05-23T07:24:10.214Z,29.13
2019-05-23T07:26:39.378Z,29.18
2019-05-23T07:29:08.926Z,28.70
2019-05-23T07:31:38.105Z,27.67
2019-05-23T07:34:07.230Z,27.93
2019-05-23T07:36:36.723Z,26.25
2019-05-23T07:39:11.356Z,23.85
2019-05-23T07:41:39.829Z,23.18
2019-05-23T07:44:10.113Z,24.55
2019-05-23T07:46:39.831Z,22.35
2019-05-23T07:49:08.976Z,22.48
2019-05-23T07:51:38.194Z,21.12
2019-05-23T07:54:24.300Z,22.40
2019-05-23T07:56:53.865Z,23.15
2019-05-23T07:59:22.934Z,24.85
2019-05-23T08:01:58.895Z,24.30
2019-05-23T08:04:29.142Z,24.77
2019-05-23T08:06:58.164Z,23.60
2019-05-23T08:09:27.992Z,25.40
2019-05-23T08:11:57.152Z,25.40
2019-05-23T08:14:26.334Z,23.98
2019-05-23T08:16:55.767Z,23.67
2019-05-23T08:19:25.143Z,22.25
2019-05-23T08:21:54.361Z,20.55
2019-05-23T08:24:24.429Z,21.95
2019-05-23T08:26:55.840Z,21.10
2019-05-23T08:29:26.848Z,20.50
2019-05-23T08:31:56.212Z,19.75
2019-05-23T08:34:40.527Z,18.62
2019-05-23T08:36:57.420Z,18.70
2019-05-23T08:39:27.833Z,17.92
2019-05-23T08:41:57.179Z,16.90
2019-05-23T08:44:26.378Z,17.25
2019-05-23T08:46:55.699Z,15.78
2019-05-23T08:49:25.356Z,15.48
2019-05-23T08:51:54.635Z,17.73
2019-05-23T08:54:23.719Z,17.50
2019-05-23T08:56:52.958Z,16.02
2019-05-23T08:59:22.246Z,17.17
2019-05-23T09:01:51.342Z,15.45
2019-05-23T09:04:20.989Z,16.27
2019-05-23T09:06:50.279Z,15.85
2019-05-23T09:09:29.573Z,14.53
2019-05-23T09:11:50.519Z,15.72
2019-05-23T09:14:23.371Z,13.45
2019-05-23T09:16:52.723Z,12.20
2019-05-23T09:19:26.346Z,11.43
2019-05-23T09:21:58.280Z,12.63
2019-05-23T09:24:27.558Z,10.78
2019-05-23T09:27:15.876Z,10.18
2019-05-23T09:29:45.550Z,9.75
2019-05-23T09:32:14.704Z,9.55
2019-05-23T09:34:43.741Z,9.43
2019-05-23T09:37:13.752Z,9.88
2019-05-23T09:39:44.327Z,10.68
2019-05-23T09:42:13.394Z,11.35
2019-05-23T09:44:42.474Z,11.05
2019-05-23T09:47:11.613Z,11.20
2019-05-23T09:49:40.675Z,10.15
2019-05-23T09:52:10.839Z,9.85
2019-05-23T09:54:40.257Z,9.20
2019-05-23T09:57:09.433Z,9.53
2019-05-23T09:59:38.542Z,8.85
2019-05-23T10:02:07.884Z,8.58
2019-05-23T10:04:37.006Z,9.70
2019-05-23T10:07:06.124Z,9.80
2019-05-23T10:09:35.184Z,9.90
2019-05-23T10:12:04.287Z,9.03
2019-05-23T10:14:35.129Z,8.85
2019-05-23T10:17:04.228Z,8.55
2019-05-23T10:19:33.353Z,7.80
2019-05-23T10:22:02.399Z,8.50
2019-05-23T10:24:31.441Z,8.95
2019-05-23T10:27:00.512Z,9.15
2019-05-23T10:29:29.578Z,9.58
2019-05-23T10:31:58.579Z,9.60
2019-05-23T10:34:28.231Z,9.23
2019-05-23T10:36:57.342Z,10.05
2019-05-23T10:39:26.967Z,10.90
2019-05-23T10:41:56.043Z,10.20
2019-05-23T10:44:25.123Z,9.88
2019-05-23T10:46:55.884Z,11.10
2019-05-23T10:49:25.043Z,10.65
2019-05-23T10:51:54.090Z,11.10
2019-05-23T10:54:23.232Z,12.47
2019-05-23T10:56:52.330Z,12.20
2019-05-23T10:59:21.484Z,12.47
2019-05-23T11:01:50.799Z,11.48
2019-05-23T11:04:20.019Z,12.98
2019-05-23T11:06:49.113Z,13.03
2019-05-23T11:09:36.136Z,13.15
2019-05-23T11:11:50.928Z,12.40
2019-05-23T11:14:20.097Z,13.38
2019-05-23T11:16:49.652Z,14.95
2019-05-23T11:19:19.000Z,12.88
2019-05-23T11:21:48.234Z,12.00
2019-05-23T11:24:18.181Z,12.60
2019-05-23T11:26:47.249Z,13.13
2019-05-23T11:29:16.313Z,12.47
2019-05-23T11:31:45.988Z,14.38
2019-05-23T11:34:15.110Z,13.65
2019-05-23T11:36:44.171Z,12.90
2019-05-23T11:39:14.600Z,14.90
2019-05-23T11:41:43.744Z,14.07
2019-05-23T11:44:12.879Z,15.50
2019-05-23T11:46:42.036Z,15.78
2019-05-23T11:49:11.151Z,14.30
2019-05-23T11:51:40.264Z,15.35
2019-05-23T11:54:10.125Z,14.70
2019-05-23T11:56:40.081Z,16.93
2019-05-23T11:59:09.419Z,13.90
2019-05-23T12:02:09.366Z,13.32
2019-05-23T12:04:40.885Z,13.83
2019-05-23T12:07:17.244Z,15.50
2019-05-23T12:09:46.380Z,13.88
2019-05-23T12:12:15.361Z,14.90
2019-05-23T12:14:44.426Z,13.68
2019-05-23T12:17:15.160Z,11.80
2019-05-23T12:19:44.362Z,12.82
2019-05-23T12:22:13.613Z,12.00
2019-05-23T12:24:42.638Z,13.13
2019-05-23T12:27:12.178Z,12.73
2019-05-23T12:29:41.306Z,14.28
2019-05-23T12:32:12.109Z,12.10
2019-05-23T12:34:41.274Z,12.65
2019-05-23T12:37:19.870Z,12.60
2019-05-23T12:39:41.123Z,13.22
2019-05-23T12:42:10.166Z,13.48
2019-05-23T12:44:39.282Z,13.22
2019-05-23T12:47:12.753Z,13.58
2019-05-23T12:49:52.447Z,11.93
2019-05-23T12:52:21.665Z,12.75
2019-05-23T12:54:50.903Z,12.70
2019-05-23T12:57:21.877Z,12.63
2019-05-23T12:59:51.273Z,11.43
2019-05-23T13:02:25.185Z,12.47
2019-05-23T13:04:54.280Z,11.75
2019-05-23T13:07:35.851Z,11.50
2019-05-23T13:09:54.151Z,11.03
2019-05-23T13:12:23.468Z,10.33
2019-05-23T13:14:55.904Z,10.10
2019-05-23T13:17:23.273Z,10.50
2019-05-23T13:19:52.311Z,9.17
2019-05-23T13:22:21.997Z,10.82
2019-05-23T13:24:53.294Z,10.82
2019-05-23T13:27:21.929Z,9.77
2019-05-23T13:29:50.799Z,10.90
2019-05-23T13:32:19.697Z,10.28
2019-05-23T13:34:48.707Z,11.60
2019-05-23T13:37:18.063Z,10.57
2019-05-23T13:39:47.090Z,10.77
2019-05-23T13:42:16.153Z,10.40
2019-05-23T13:44:45.534Z,10.73
2019-05-23T13:47:14.542Z,10.30
2019-05-23T13:49:43.923Z,8.40
2019-05-23T13:52:12.861Z,6.83
2019-05-23T13:54:41.798Z,6.97
2019-05-23T13:57:11.516Z,7.80
2019-05-23T13:59:40.870Z,6.83
2019-05-23T14:02:10.022Z,8.07
2019-05-23T14:04:39.326Z,8.10
2019-05-23T14:07:09.951Z,8.20
2019-05-23T14:09:39.596Z,7.33
2019-05-23T14:12:20.858Z,7.17
2019-05-23T14:14:39.338Z,6.90
2019-05-23T14:17:36.493Z,6.03
2019-05-23T14:20:06.647Z,5.47
2019-05-23T14:22:39.367Z,5.43
2019-05-23T14:25:08.386Z,4.70
2019-05-23T14:27:54.654Z,5.23
2019-05-23T14:30:45.921Z,4.30
2019-05-23T14:33:43.182Z,5.80
2019-05-23T14:36:19.024Z,5.30
2019-05-23T14:38:48.049Z,5.40
2019-05-23T14:41:17.115Z,4.63
2019-05-23T14:43:48.650Z,4.80
2019-05-23T14:47:20.980Z,5.17
2019-05-23T14:50:15.581Z,4.93
2019-05-23T14:52:45.301Z,5.53
2019-05-23T14:55:14.450Z,5.00
2019-05-23T14:57:43.587Z,4.43
2019-05-23T15:00:12.762Z,4.30
2019-05-23T15:02:42.020Z,3.90
2019-05-23T15:05:11.281Z,3.77
2019-05-23T15:07:40.328Z,3.93
2019-05-23T15:10:10.418Z,4.60
2019-05-23T15:12:39.508Z,4.70
2019-05-23T15:15:08.543Z,4.67
2019-05-23T15:17:37.599Z,4.00
2019-05-23T15:20:07.198Z,3.93
2019-05-23T15:22:36.325Z,4.43
2019-05-23T15:25:06.027Z,4.50
2019-05-23T15:27:35.100Z,3.90
2019-05-23T15:30:04.190Z,4.27
2019-05-23T15:32:33.278Z,4.60
2019-05-23T15:35:02.423Z,3.83
2019-05-23T15:37:31.514Z,4.40
2019-05-23T15:40:00.549Z,3.90
2019-05-23T15:42:30.056Z,4.10
2019-05-23T15:44:59.151Z,4.20
2019-05-23T15:47:32.006Z,5.27
2019-05-23T15:50:06.244Z,4.50
2019-05-23T15:52:43.106Z,4.53
2019-05-23T15:55:26.780Z,4.47
2019-05-23T15:58:07.404Z,4.03
2019-05-23T16:01:04.215Z,3.93
2019-05-23T16:03:40.557Z,4.20
2019-05-23T16:06:11.122Z,4.33
2019-05-23T16:08:40.126Z,3.87
2019-05-23T16:11:09.243Z,4.23
2019-05-23T16:13:38.264Z,4.17
2019-05-23T16:16:07.258Z,3.80
2019-05-23T16:18:36.329Z,3.30
2019-05-23T16:21:05.425Z,2.90
2019-05-23T16:23:34.459Z,3.87
2019-05-23T16:26:03.516Z,3.97
2019-05-23T16:28:32.531Z,3.47
2019-05-23T16:31:01.681Z,3.43
2019-05-23T16:33:30.739Z,4.67
2019-05-23T16:35:59.969Z,3.87
2019-05-23T16:38:29.009Z,3.47
2019-05-23T16:40:58.099Z,3.43
2019-05-23T16:43:27.115Z,4.27
2019-05-23T16:45:56.127Z,3.30
2019-05-23T16:48:25.174Z,3.10
2019-05-23T16:50:54.149Z,3.27
2019-05-23T16:53:24.988Z,3.30
2019-05-23T16:56:00.098Z,3.60
2019-05-23T16:58:51.206Z,3.77
2019-05-23T17:01:34.011Z,4.50
2019-05-23T17:04:08.982Z,3.90
2019-05-23T17:06:44.633Z,3.70
2019-05-23T17:09:38.810Z,3.80
2019-05-23T17:12:25.531Z,3.30
2019-05-23T17:14:59.272Z,3.37
2019-05-23T17:18:01.347Z,3.50
2019-05-23T17:20:33.879Z,3.00
2019-05-23T17:23:16.130Z,2.93
2019-05-23T17:25:53.321Z,3.30
2019-05-23T17:28:32.173Z,3.10
2019-05-23T17:31:03.807Z,3.33
2019-05-23T17:33:36.879Z,3.37
2019-05-23T17:36:04.122Z,2.80
2019-05-23T17:38:33.251Z,2.70
2019-05-23T17:41:02.517Z,3.40
2019-05-23T17:43:34.332Z,3.87
2019-05-23T17:46:03.205Z,3.33
2019-05-23T17:48:32.136Z,3.50
2019-05-23T17:51:01.168Z,3.37
2019-05-23T17:53:30.342Z,2.80
2019-05-23T17:55:59.659Z,3.30
2019-05-23T17:58:28.782Z,2.93
2019-05-23T18:00:58.201Z,2.50
2019-05-23T18:03:27.561Z,4.30
2019-05-23T18:05:56.947Z,3.17
2019-05-23T18:08:26.582Z,2.80
2019-05-23T18:10:56.048Z,3.53
2019-05-23T18:13:25.521Z,2.77
2019-05-23T18:15:55.528Z,2.60
2019-05-23T18:18:24.627Z,4.30
2019-05-23T18:20:53.653Z,4.30
2019-05-23T18:23:22.708Z,2.77
2019-05-23T18:25:52.020Z,3.20
2019-05-23T18:28:21.019Z,2.93
2019-05-23T18:31:00.894Z,2.83
2019-05-23T18:33:29.929Z,3.03
2019-05-23T18:35:59.010Z,2.60
2019-05-23T18:38:28.070Z,3.30
2019-05-23T18:41:03.155Z,2.37
2019-05-23T18:43:29.460Z,2.83
2019-05-23T18:46:01.433Z,3.33
2019-05-23T18:48:30.419Z,3.80
2019-05-23T18:50:59.573Z,3.30
2019-05-23T18:53:28.789Z,3.50
2019-05-23T18:55:57.761Z,3.57
2019-05-23T18:58:26.789Z,2.80
2019-05-23T19:01:03.475Z,3.40
2019-05-23T19:03:33.408Z,3.53
2019-05-23T19:06:02.376Z,3.40
2019-05-23T19:08:31.561Z,3.20
2019-05-23T19:11:00.712Z,3.17
2019-05-23T19:13:29.832Z,2.80
2019-05-23T19:15:58.813Z,3.17
2019-05-23T19:18:28.090Z,2.80
2019-05-23T19:20:58.077Z,2.57
2019-05-23T19:23:27.314Z,3.00
2019-05-23T19:25:56.592Z,3.10
2019-05-23T19:28:25.699Z,2.80
2019-05-23T19:30:54.906Z,3.03
2019-05-23T19:33:25.256Z,2.63
2019-05-23T19:35:54.873Z,2.53
2019-05-23T19:38:24.272Z,3.30
2019-05-23T19:40:53.510Z,2.70
2019-05-23T19:43:23.722Z,2.60
2019-05-23T19:45:52.913Z,2.70
2019-05-23T19:48:22.576Z,2.80
2019-05-23T19:50:51.748Z,2.90
2019-05-23T19:53:20.669Z,3.53
2019-05-23T19:55:50.250Z,4.10
2019-05-23T19:58:19.423Z,3.77
2019-05-23T20:00:48.500Z,3.73
2019-05-23T20:03:18.229Z,4.27
2019-05-23T20:05:48.006Z,4.30
2019-05-23T20:08:17.016Z,4.17
2019-05-23T20:10:46.155Z,5.07
2019-05-23T20:13:18.355Z,8.60
2019-05-23T20:15:46.575Z,5.30
2019-05-23T20:18:16.371Z,5.20
2019-05-23T20:20:45.380Z,3.50
2019-05-23T20:23:16.149Z,4.50
2019-05-23T20:25:45.181Z,5.20
2019-05-23T20:28:14.168Z,4.37
2019-05-23T20:30:53.019Z,4.10
2019-05-23T20:33:21.962Z,5.57
2019-05-23T20:35:51.076Z,5.67
2019-05-23T20:38:20.102Z,4.80
2019-05-23T20:40:49.069Z,3.77
2019-05-23T20:43:18.144Z,3.23
2019-05-23T20:45:47.160Z,3.20
2019-05-23T20:48:16.156Z,3.57
2019-05-23T20:50:45.225Z,2.90
2019-05-23T20:53:14.132Z,3.50
2019-05-23T20:55:43.419Z,3.20
2019-05-23T20:58:12.421Z,2.97
2019-05-23T21:01:03.479Z,3.07
2019-05-23T21:03:36.068Z,4.00
2019-05-23T21:06:05.879Z,2.90
2019-05-23T21:08:35.211Z,4.07
2019-05-23T21:11:04.257Z,3.07
2019-05-23T21:13:33.253Z,3.20
2019-05-23T21:16:02.204Z,2.90
2019-05-23T21:18:31.152Z,2.70
2019-05-23T21:21:00.193Z,2.63
2019-05-23T21:23:29.217Z,2.80
2019-05-23T21:26:06.633Z,3.30
2019-05-23T21:28:36.466Z,3.13
2019-05-23T21:31:09.836Z,3.13
2019-05-23T21:33:38.805Z,3.63
2019-05-23T21:36:07.813Z,3.60
2019-05-23T21:38:36.775Z,2.80
2019-05-23T21:41:05.862Z,3.37
2019-05-23T21:43:34.940Z,3.67
2019-05-23T21:46:04.124Z,3.10
2019-05-23T21:48:33.141Z,3.30
2019-05-23T21:51:02.157Z,3.10
2019-05-23T21:53:31.090Z,2.93
2019-05-23T21:56:00.110Z,2.83
2019-05-23T21:58:29.174Z,2.30
2019-05-23T22:01:23.899Z,2.63
2019-05-23T22:04:14.611Z,2.80
2019-05-23T22:07:02.638Z,2.53
2019-05-23T22:09:32.275Z,2.43
2019-05-23T22:12:01.699Z,2.43
2019-05-23T22:17:58.719Z,2.10
2019-05-23T22:20:27.769Z,2.70
2019-05-23T22:22:56.878Z,2.50
2019-05-23T22:25:33.061Z,2.40
2019-05-23T22:28:02.133Z,2.57
2019-05-23T22:30:31.422Z,2.73
2019-05-23T22:33:01.171Z,3.00
2019-05-23T22:35:30.209Z,2.77
2019-05-23T22:38:00.303Z,2.27
2019-05-23T22:40:29.447Z,2.60
2019-05-23T22:42:58.622Z,2.43
2019-05-23T22:45:28.432Z,3.03
2019-05-23T22:47:57.913Z,2.23
2019-05-23T22:50:27.180Z,2.30
2019-05-23T22:52:56.304Z,2.20
2019-05-23T22:55:25.463Z,2.37
2019-05-23T22:57:55.226Z,3.00
2019-05-23T23:00:31.657Z,2.80
2019-05-23T23:03:00.862Z,2.87
2019-05-23T23:05:29.933Z,2.90
2019-05-23T23:07:59.048Z,2.53
2019-05-23T23:10:28.880Z,3.00
2019-05-23T23:12:58.050Z,3.03
2019-05-23T23:15:28.382Z,2.73
2019-05-23T23:17:57.646Z,2.70
2019-05-23T23:20:26.783Z,2.57
2019-05-23T23:22:56.030Z,2.80
2019-05-23T23:25:25.089Z,2.87
2019-05-23T23:27:54.196Z,2.90
2019-05-23T23:30:26.411Z,3.10
2019-05-23T23:32:55.532Z,3.00
2019-05-23T23:35:24.666Z,3.20
2019-05-23T23:37:53.793Z,2.80
2019-05-23T23:40:22.876Z,3.33
2019-05-23T23:42:52.005Z,2.87
2019-05-23T23:45:39.071Z,2.67
2019-05-23T23:48:25.882Z,3.07
2019-05-23T23:51:12.200Z,3.33
2019-05-23T23:53:59.159Z,2.90
2019-05-23T23:56:46.268Z,3.70
2019-05-23T23:59:14.541Z,2.80
